Airfield :
LOGIN :

Register | Disclaimer

   EN    FR    IT 

 










Legend :    VFR   Marginal VFR   IFR   Intensive IFR   Very Intensive IFR
Visi :
Ceiling :
>= 8 km
>= 3000ft
5 to 8 km
1000 to 3000 ft
1500m to 5 km
500 to 1000 ft
800 to 1500m
200 to 500 ft
< 800m
< 200 ft
Symbols :   Thunderstorms  Fog  Heavy snow  Heavy precipitations  Wind > 20 kt
SIGMETs :     Misc.  Thunderstorms  Icing  Turbulence  Mountain Waves  Volcanic Ashes







- Airport Elevation : 266 ft
- IATA code : NCL
- Download approach charts


EGNT - Newcastle

CURRENT METAR :
  • 160820Z 18009KT 150V240 9999 FEW020 14/09 Q1011

EXPIRED METARs :
  • 160750Z 19009KT 160V240 9999 FEW020 13/09 Q1011
  • 160720Z 19007KT 150V230 CAVOK 13/09 Q1011
  • 160650Z 20004KT 140V250 CAVOK 12/09 Q1011
  • 160620Z 18006KT 150V220 CAVOK 11/08 Q1011
  • 160550Z 19005KT 160V230 CAVOK 10/08 Q1010
  • 160520Z 18005KT 140V230 CAVOK 09/08 Q1010

TAF TAF EGNT
Valid from the 16 at 06:00 until the 17 at 06:00 UTC


160457Z 1606/1706 VRB03KT 9999 FEW030
BECMG 1606/1609 20010KT
TEMPO 1609/1617 7000 SHRA
PROB30
TEMPO 1612/1617 4000 +SHRA
TEMPO 1620/1706 8000 -RA
PROB30
TEMPO 1620/1703 RA
PROB30
TEMPO 1622/1706 18015G25KT
ATIS : +44 191 214 3400
No reported NOTAMs for that airfield.



MET'MAP, your aeronautical weather chart ! - Copyright ORBIFLY December 2007 - Disclaimer

ORBIFLY MET'MAP TEAM :

Programming & Development : Alexandra Zaïnal
Concept & Development : Baudouin d'Aumeries
Co-Development & Prog : Marc-Olivier Méhu
Technical & hardware support : Manuel Goepfert

Contact : metmap@orbifly.com




SOURCES & CREDITS :

   NOAA